»·PEaware :: N63663 KPSP-KSAN

N63663 :: KPSP-KSAN

FLIGHT INFORMATION

Flight Status: Arrived
Operator: Privately registered:
United States
More flights under this callsign
Pilot: Hassan P. (16390)
Aircraft: CESSNA 172 SKYHAWK
(C172)
More flights by this aircraft type
Origin: KPSP Palm Springs Intl
United States
Destination: KSAN San Diego Intl-Lindbergh
United States
More flights between these airports :: More routes between these airports
Route: +CATH1 PSP TRM V514 MZB
File this flight plan on PilotEdge
Remarks:
Altitude:
(Current/Filed)
10,000ft
Speed:
(Current/Filed)
110kts
Departed: 29-Sep-17 06:08 PM
Arrived: 29-Sep-17 07:17 PM
Distance/Time
Traveled:
74nm/1:08
Distance/Time
To Go:
Arrived

Flight Plot

Page will automatically refresh every two minutes.


Map Options




Map Legend


Flown Route
Filed Route
Departure Airport
Arrival Airport
Navaid (VOR, NDB)
Fix

Horizontal Profiles

Position Reports

Time Latitude Longitude Heading Altitude Ground
Speed
29-Sep-17 17:59 33.822479 -116.496003 233 425ft 0kts
29-Sep-17 18:00 33.822479 -116.496003 233 425ft 0kts
29-Sep-17 18:01 33.822479 -116.496003 233 425ft 0kts
29-Sep-17 18:02 33.822479 -116.496003 233 425ft 0kts
29-Sep-17 18:03 33.822479 -116.496003 233 425ft 0kts
29-Sep-17 18:04 33.822479 -116.496003 233 425ft 0kts
29-Sep-17 18:05 33.822479 -116.496003 233 425ft 0kts
29-Sep-17 18:06 33.822207 -116.496411 237 425ft 4kts
29-Sep-17 18:07 33.823405 -116.498119 323 425ft 6kts
29-Sep-17 18:08 33.824136 -116.498752 329 425ft 2kts
29-Sep-17 18:09 33.824671 -116.499503 235 425ft 3kts
29-Sep-17 18:10 33.824631 -116.499571 234 425ft 0kts
29-Sep-17 18:11 33.824877 -116.500520 324 425ft 24kts
29-Sep-17 18:12 33.839792 -116.513775 321 1079ft 86kts
29-Sep-17 18:13 33.858140 -116.530912 321 2148ft 80kts
29-Sep-17 18:14 33.874952 -116.546649 321 3204ft 75kts
29-Sep-17 18:15 33.892472 -116.563224 321 4080ft 86kts
29-Sep-17 18:16 33.913364 -116.569725 50 4873ft 92kts
29-Sep-17 18:17 33.916336 -116.540350 66 5669ft 92kts
29-Sep-17 18:18 33.914455 -116.510927 106 6453ft 93kts
29-Sep-17 18:19 33.907590 -116.481475 123 7114ft 94kts
29-Sep-17 18:20 33.891562 -116.457900 122 7815ft 86kts
29-Sep-17 18:21 33.875893 -116.436105 139 8442ft 91kts
29-Sep-17 18:22 33.857486 -116.415148 128 9001ft 90kts
29-Sep-17 18:23 33.838268 -116.393372 131 9449ft 100kts
29-Sep-17 18:24 33.818420 -116.369492 140 9912ft 103kts
29-Sep-17 18:25 33.794329 -116.345924 138 10030ft 119kts
29-Sep-17 18:26 33.772181 -116.318007 130 9964ft 118kts
29-Sep-17 18:27 33.748890 -116.290475 133 9904ft 118kts
29-Sep-17 18:28 33.725725 -116.263676 133 9919ft 113kts
29-Sep-17 18:29 33.701247 -116.239548 144 9918ft 113kts
29-Sep-17 18:30 33.676952 -116.215621 139 9950ft 111kts
29-Sep-17 18:31 33.653719 -116.191603 139 10018ft 110kts
29-Sep-17 18:32 33.630295 -116.166710 137 10024ft 117kts
29-Sep-17 18:33 33.604852 -116.142899 180 10049ft 112kts
29-Sep-17 18:34 33.581042 -116.159208 242 10307ft 93kts
29-Sep-17 18:35 33.569034 -116.190967 248 10236ft 106kts
29-Sep-17 18:36 33.549282 -116.219854 222 9986ft 126kts
29-Sep-17 18:37 33.528120 -116.246124 220 9839ft 100kts
29-Sep-17 18:38 33.504784 -116.265228 220 10003ft 101kts
29-Sep-17 18:39 33.481817 -116.286109 217 10198ft 102kts
29-Sep-17 18:40 33.455310 -116.308522 217 10089ft 120kts
29-Sep-17 18:41 33.427564 -116.332797 219 10045ft 124kts
29-Sep-17 18:42 33.398012 -116.355634 216 9988ft 128kts
29-Sep-17 18:43 33.369565 -116.380960 220 9924ft 129kts
29-Sep-17 18:44 33.343694 -116.405194 223 9865ft 109kts
29-Sep-17 18:45 33.325099 -116.425214 229 9956ft 103kts
29-Sep-17 18:46 33.302952 -116.447144 213 10030ft 104kts
29-Sep-17 18:47 33.277141 -116.462088 209 10016ft 111kts
29-Sep-17 18:48 33.252025 -116.481263 222 10098ft 105kts
29-Sep-17 18:49 33.230559 -116.507564 220 9993ft 113kts
29-Sep-17 18:50 33.204328 -116.526101 232 10134ft 96kts
29-Sep-17 18:51 33.183291 -116.549181 218 10128ft 107kts
29-Sep-17 18:52 33.157886 -116.567646 219 10185ft 107kts
29-Sep-17 18:53 33.132329 -116.586254 205 10251ft 106kts
29-Sep-17 18:54 33.104214 -116.597497 208 10267ft 111kts
29-Sep-17 18:55 33.074980 -116.614171 217 9793ft 121kts
29-Sep-17 18:56 33.041887 -116.627632 199 9143ft 130kts
29-Sep-17 18:57 33.012315 -116.641645 208 9096ft 110kts
29-Sep-17 18:58 32.983887 -116.655022 212 9193ft 109kts
29-Sep-17 18:59 32.955099 -116.670508 207 9129ft 121kts
29-Sep-17 19:00 32.920233 -116.683400 197 8227ft 137kts
29-Sep-17 19:01 32.890223 -116.702609 215 7077ft 119kts
29-Sep-17 19:02 32.863226 -116.723952 221 6013ft 112kts
29-Sep-17 19:03 32.835967 -116.738224 208 6204ft 102kts
29-Sep-17 19:04 32.809403 -116.754360 212 6216ft 106kts
29-Sep-17 19:05 32.780492 -116.767514 203 5800ft 118kts
29-Sep-17 19:06 32.749507 -116.781856 205 5128ft 116kts
29-Sep-17 19:07 32.720704 -116.792383 198 5116ft 106kts
29-Sep-17 19:08 32.699142 -116.802124 233 4995ft 103kts
29-Sep-17 19:09 32.691648 -116.833248 254 5294ft 100kts
29-Sep-17 19:10 32.681919 -116.865611 251 5021ft 102kts
29-Sep-17 19:11 32.671227 -116.894214 247 4118ft 126kts
29-Sep-17 19:12 32.667806 -116.926241 293 3803ft 92kts
29-Sep-17 19:13 32.676667 -116.959153 292 3812ft 105kts
29-Sep-17 19:14 32.685174 -116.992518 284 3424ft 107kts
29-Sep-17 19:15 32.693894 -117.026437 287 2742ft 108kts
29-Sep-17 19:16 32.700505 -117.056575 289 2499ft 93kts
29-Sep-17 19:17 32.706963 -117.081085 282 2084ft 93kts
29-Sep-17 19:18 32.714439 -117.111406 287 1483ft 97kts
29-Sep-17 19:19 32.721610 -117.141341 288 962ft 82kts
29-Sep-17 19:20 32.728121 -117.167604 287 380ft 67kts
29-Sep-17 19:21 32.732102 -117.183679 290 16ft 37kts
29-Sep-17 19:22 32.734045 -117.187989 31 16ft 0kts
29-Sep-17 19:23 32.733832 -117.185911 105 16ft 11kts
29-Sep-17 19:24 32.733185 -117.183407 106 16ft 5kts
29-Sep-17 19:25 32.732557 -117.180759 108 17ft 10kts
29-Sep-17 19:26 32.731995 -117.178205 65 23ft 4kts
29-Sep-17 19:27 32.732349 -117.177627 189 25ft 0kts
29-Sep-17 19:28 32.732349 -117.177627 189 25ft 0kts
29-Sep-17 19:29 32.732349 -117.177627 189 25ft 0kts

Navigation Log

Ident Type
1. KPSP Airport
2. PSP Navaid
3. TRM Navaid
4. WARNE Fix
5. JLI Navaid
6. CANNO Fix
7. BARET Fix
8. RYAHH Fix
9. HAILE Fix
10. MZB Navaid
11. KSAN Airport